Le Grand, California
Current Conditions -  °F | °C
As of 6:53 AM on Saturday 25 Oct 2014 (Local Time) from KMCE Reporting Station
Clear Clear  
Wind Chill: 14°   Ceiling: Unl
Heat Index: 14°   Visibility: 10mi
Dew Point: 10°   Wind: 3mph
Humidity: 75%   Direction: 90°E
Pressure: 29.98"   Gusts: NA
Location:  37.23°N, 120.25°W
Report Text: KMCE 251353Z AUTO 09003KT 10SM CLR 14/10 A2998 RMK AO2 SLP151 T01440100
Loading
Personal Weather Stations






























Interactive Weather Map
Tropical Storm Tracking
New forecast layout! Learn more

10-Day Weather Forecast

Advertisements
Track Severe Weather on mobile